sensor_id;sensor_type;location;lat;lon;timestamp;P1;durP1;ratioP1;P2;durP2;ratioP2
11522;SDS011;70090;43.208;27.904;2023-05-29T00:00:35;12.03;;;10.83;;
11522;SDS011;70090;43.208;27.904;2023-05-29T00:03:03;14.63;;;11.53;;
11522;SDS011;70090;43.208;27.904;2023-05-29T00:05:30;30.83;;;27.73;;
11522;SDS011;70090;43.208;27.904;2023-05-29T00:07:58;13.13;;;11.80;;
11522;SDS011;70090;43.208;27.904;2023-05-29T00:10:25;17.17;;;12.70;;
11522;SDS011;70090;43.208;27.904;2023-05-29T00:12:52;14.07;;;12.33;;
11522;SDS011;70090;43.208;27.904;2023-05-29T00:15:21;18.57;;;16.70;;
11522;SDS011;70090;43.208;27.904;2023-05-29T00:17:48;22.80;;;20.63;;
11522;SDS011;70090;43.208;27.904;2023-05-29T00:20:15;18.77;;;16.00;;
11522;SDS011;70090;43.208;27.904;2023-05-29T00:22:43;17.93;;;14.30;;
11522;SDS011;70090;43.208;27.904;2023-05-29T00:25:11;16.37;;;14.77;;
11522;SDS011;70090;43.208;27.904;2023-05-29T00:27:38;14.90;;;13.20;;
11522;SDS011;70090;43.208;27.904;2023-05-29T00:30:05;15.37;;;13.93;;
11522;SDS011;70090;43.208;27.904;2023-05-29T00:32:33;13.83;;;12.27;;
11522;SDS011;70090;43.208;27.904;2023-05-29T00:35:00;14.00;;;12.50;;
11522;SDS011;70090;43.208;27.904;2023-05-29T00:37:27;14.87;;;12.80;;
11522;SDS011;70090;43.208;27.904;2023-05-29T00:39:54;14.33;;;12.93;;
11522;SDS011;70090;43.208;27.904;2023-05-29T00:42:22;13.93;;;12.53;;
11522;SDS011;70090;43.208;27.904;2023-05-29T00:44:49;14.37;;;12.87;;
11522;SDS011;70090;43.208;27.904;2023-05-29T00:47:15;14.77;;;13.20;;
11522;SDS011;70090;43.208;27.904;2023-05-29T00:49:42;15.07;;;13.17;;
11522;SDS011;70090;43.208;27.904;2023-05-29T00:52:09;14.87;;;13.07;;
11522;SDS011;70090;43.208;27.904;2023-05-29T00:54:37;17.47;;;13.30;;
11522;SDS011;70090;43.208;27.904;2023-05-29T00:57:04;16.97;;;14.80;;
11522;SDS011;70090;43.208;27.904;2023-05-29T00:59:33;16.87;;;14.63;;
11522;SDS011;70090;43.208;27.904;2023-05-29T01:02:01;17.83;;;15.90;;
11522;SDS011;70090;43.208;27.904;2023-05-29T01:04:28;19.93;;;16.33;;
11522;SDS011;70090;43.208;27.904;2023-05-29T01:06:58;18.13;;;16.13;;
11522;SDS011;70090;43.208;27.904;2023-05-29T01:09:27;18.47;;;16.67;;
11522;SDS011;70090;43.208;27.904;2023-05-29T01:11:57;17.10;;;15.40;;
11522;SDS011;70090;43.208;27.904;2023-05-29T01:14:36;19.17;;;15.60;;
11522;SDS011;70090;43.208;27.904;2023-05-29T01:17:14;17.87;;;16.00;;
11522;SDS011;70090;43.208;27.904;2023-05-29T01:19:48;18.30;;;15.50;;
11522;SDS011;70090;43.208;27.904;2023-05-29T01:22:34;18.07;;;16.13;;
11522;SDS011;70090;43.208;27.904;2023-05-29T01:25:11;18.47;;;16.50;;
11522;SDS011;70090;43.208;27.904;2023-05-29T01:27:44;20.63;;;18.43;;
11522;SDS011;70090;43.208;27.904;2023-05-29T01:30:14;19.83;;;17.73;;
11522;SDS011;70090;43.208;27.904;2023-05-29T01:32:41;21.17;;;18.97;;
11522;SDS011;70090;43.208;27.904;2023-05-29T01:35:09;22.43;;;17.77;;
11522;SDS011;70090;43.208;27.904;2023-05-29T01:37:36;20.17;;;18.00;;
11522;SDS011;70090;43.208;27.904;2023-05-29T01:40:03;20.50;;;18.13;;
11522;SDS011;70090;43.208;27.904;2023-05-29T01:42:30;22.17;;;17.73;;
11522;SDS011;70090;43.208;27.904;2023-05-29T01:45:00;23.23;;;19.50;;
11522;SDS011;70090;43.208;27.904;2023-05-29T01:47:29;24.10;;;19.97;;
11522;SDS011;70090;43.208;27.904;2023-05-29T01:49:56;24.20;;;20.13;;
11522;SDS011;70090;43.208;27.904;2023-05-29T01:52:23;22.30;;;19.87;;
11522;SDS011;70090;43.208;27.904;2023-05-29T01:54:50;23.33;;;20.90;;
11522;SDS011;70090;43.208;27.904;2023-05-29T01:57:17;24.67;;;21.40;;
11522;SDS011;70090;43.208;27.904;2023-05-29T01:59:44;23.07;;;20.63;;
11522;SDS011;70090;43.208;27.904;2023-05-29T02:02:12;27.40;;;20.83;;
11522;SDS011;70090;43.208;27.904;2023-05-29T02:04:39;24.30;;;21.70;;
11522;SDS011;70090;43.208;27.904;2023-05-29T02:07:06;23.53;;;21.10;;
11522;SDS011;70090;43.208;27.904;2023-05-29T02:09:33;25.10;;;22.43;;
11522;SDS011;70090;43.208;27.904;2023-05-29T02:12:01;25.00;;;22.30;;
11522;SDS011;70090;43.208;27.904;2023-05-29T02:14:28;25.03;;;22.37;;
11522;SDS011;70090;43.208;27.904;2023-05-29T02:16:57;24.43;;;21.83;;
11522;SDS011;70090;43.208;27.904;2023-05-29T02:19:25;26.27;;;23.60;;
11522;SDS011;70090;43.208;27.904;2023-05-29T02:21:52;26.17;;;23.37;;
11522;SDS011;70090;43.208;27.904;2023-05-29T02:24:19;24.57;;;21.87;;
11522;SDS011;70090;43.208;27.904;2023-05-29T02:26:47;25.50;;;22.47;;
11522;SDS011;70090;43.208;27.904;2023-05-29T02:29:15;26.93;;;23.23;;
11522;SDS011;70090;43.208;27.904;2023-05-29T02:31:42;24.50;;;21.90;;
11522;SDS011;70090;43.208;27.904;2023-05-29T02:34:09;23.90;;;21.57;;
11522;SDS011;70090;43.208;27.904;2023-05-29T02:36:37;23.57;;;21.17;;
11522;SDS011;70090;43.208;27.904;2023-05-29T02:39:04;24.33;;;21.03;;
11522;SDS011;70090;43.208;27.904;2023-05-29T02:41:31;23.87;;;21.23;;
11522;SDS011;70090;43.208;27.904;2023-05-29T02:43:58;22.97;;;20.50;;
11522;SDS011;70090;43.208;27.904;2023-05-29T02:46:25;22.23;;;19.93;;
11522;SDS011;70090;43.208;27.904;2023-05-29T02:48:52;21.40;;;19.20;;
11522;SDS011;70090;43.208;27.904;2023-05-29T02:51:19;23.03;;;19.03;;
11522;SDS011;70090;43.208;27.904;2023-05-29T02:53:47;21.67;;;19.43;;
11522;SDS011;70090;43.208;27.904;2023-05-29T02:56:14;21.23;;;19.23;;
11522;SDS011;70090;43.208;27.904;2023-05-29T02:58:42;20.40;;;18.03;;
11522;SDS011;70090;43.208;27.904;2023-05-29T03:01:08;20.53;;;18.43;;
11522;SDS011;70090;43.208;27.904;2023-05-29T03:03:36;20.30;;;18.20;;
11522;SDS011;70090;43.208;27.904;2023-05-29T03:06:02;21.80;;;18.80;;
11522;SDS011;70090;43.208;27.904;2023-05-29T03:08:30;22.67;;;18.60;;
11522;SDS011;70090;43.208;27.904;2023-05-29T03:11:00;20.67;;;18.47;;
11522;SDS011;70090;43.208;27.904;2023-05-29T03:13:28;21.93;;;18.63;;
11522;SDS011;70090;43.208;27.904;2023-05-29T03:15:54;22.90;;;18.60;;
11522;SDS011;70090;43.208;27.904;2023-05-29T03:18:22;21.47;;;19.10;;
11522;SDS011;70090;43.208;27.904;2023-05-29T03:20:49;20.90;;;18.70;;
11522;SDS011;70090;43.208;27.904;2023-05-29T03:23:15;21.90;;;19.67;;
11522;SDS011;70090;43.208;27.904;2023-05-29T03:25:42;20.57;;;18.37;;
11522;SDS011;70090;43.208;27.904;2023-05-29T03:28:10;23.03;;;20.03;;
11522;SDS011;70090;43.208;27.904;2023-05-29T03:30:37;21.07;;;17.57;;
11522;SDS011;70090;43.208;27.904;2023-05-29T03:33:04;22.17;;;18.43;;
11522;SDS011;70090;43.208;27.904;2023-05-29T03:35:31;22.67;;;18.73;;
11522;SDS011;70090;43.208;27.904;2023-05-29T03:37:57;21.27;;;18.43;;
11522;SDS011;70090;43.208;27.904;2023-05-29T03:40:24;22.00;;;17.90;;
11522;SDS011;70090;43.208;27.904;2023-05-29T03:42:51;21.57;;;16.50;;
11522;SDS011;70090;43.208;27.904;2023-05-29T03:45:19;18.07;;;16.17;;
11522;SDS011;70090;43.208;27.904;2023-05-29T03:47:46;19.13;;;17.13;;
11522;SDS011;70090;43.208;27.904;2023-05-29T03:50:13;18.43;;;16.53;;
11522;SDS011;70090;43.208;27.904;2023-05-29T03:52:41;18.27;;;16.53;;
11522;SDS011;70090;43.208;27.904;2023-05-29T03:55:08;18.00;;;15.87;;
11522;SDS011;70090;43.208;27.904;2023-05-29T03:57:38;19.07;;;17.00;;
11522;SDS011;70090;43.208;27.904;2023-05-29T04:00:06;18.93;;;16.27;;
11522;SDS011;70090;43.208;27.904;2023-05-29T04:02:36;16.60;;;14.90;;
11522;SDS011;70090;43.208;27.904;2023-05-29T04:05:04;18.30;;;15.97;;
11522;SDS011;70090;43.208;27.904;2023-05-29T04:07:31;17.77;;;15.97;;
11522;SDS011;70090;43.208;27.904;2023-05-29T04:09:58;17.10;;;15.30;;
11522;SDS011;70090;43.208;27.904;2023-05-29T04:12:25;19.07;;;15.80;;
11522;SDS011;70090;43.208;27.904;2023-05-29T04:14:52;17.33;;;14.97;;
11522;SDS011;70090;43.208;27.904;2023-05-29T04:17:18;18.13;;;15.37;;
11522;SDS011;70090;43.208;27.904;2023-05-29T04:19:47;17.80;;;15.90;;
11522;SDS011;70090;43.208;27.904;2023-05-29T04:22:14;17.23;;;15.33;;
11522;SDS011;70090;43.208;27.904;2023-05-29T04:24:41;20.60;;;16.90;;
11522;SDS011;70090;43.208;27.904;2023-05-29T04:27:07;19.27;;;16.33;;
11522;SDS011;70090;43.208;27.904;2023-05-29T04:29:38;20.47;;;15.30;;
11522;SDS011;70090;43.208;27.904;2023-05-29T04:32:05;18.00;;;15.80;;
11522;SDS011;70090;43.208;27.904;2023-05-29T04:34:33;19.40;;;17.27;;
11522;SDS011;70090;43.208;27.904;2023-05-29T04:37:02;21.17;;;16.47;;
11522;SDS011;70090;43.208;27.904;2023-05-29T04:39:29;20.80;;;16.63;;
11522;SDS011;70090;43.208;27.904;2023-05-29T04:41:56;27.03;;;22.37;;
11522;SDS011;70090;43.208;27.904;2023-05-29T04:44:24;22.33;;;17.83;;
11522;SDS011;70090;43.208;27.904;2023-05-29T04:46:52;19.30;;;16.23;;
11522;SDS011;70090;43.208;27.904;2023-05-29T04:49:19;21.60;;;17.10;;
11522;SDS011;70090;43.208;27.904;2023-05-29T04:51:46;19.77;;;16.17;;
11522;SDS011;70090;43.208;27.904;2023-05-29T04:54:15;20.93;;;16.47;;
11522;SDS011;70090;43.208;27.904;2023-05-29T04:56:41;18.83;;;16.87;;
11522;SDS011;70090;43.208;27.904;2023-05-29T04:59:08;18.63;;;16.60;;
11522;SDS011;70090;43.208;27.904;2023-05-29T05:01:35;19.83;;;16.90;;
11522;SDS011;70090;43.208;27.904;2023-05-29T05:04:02;23.83;;;18.40;;
11522;SDS011;70090;43.208;27.904;2023-05-29T05:06:29;21.40;;;18.63;;
11522;SDS011;70090;43.208;27.904;2023-05-29T05:08:56;20.70;;;17.70;;
11522;SDS011;70090;43.208;27.904;2023-05-29T05:11:24;20.30;;;16.93;;
11522;SDS011;70090;43.208;27.904;2023-05-29T05:13:51;22.10;;;17.27;;
11522;SDS011;70090;43.208;27.904;2023-05-29T05:16:18;20.17;;;15.57;;
11522;SDS011;70090;43.208;27.904;2023-05-29T05:18:44;19.17;;;16.73;;
11522;SDS011;70090;43.208;27.904;2023-05-29T05:21:11;21.47;;;17.27;;
11522;SDS011;70090;43.208;27.904;2023-05-29T05:23:38;22.17;;;18.07;;
11522;SDS011;70090;43.208;27.904;2023-05-29T05:26:05;19.77;;;17.57;;
11522;SDS011;70090;43.208;27.904;2023-05-29T05:28:33;23.37;;;17.30;;
11522;SDS011;70090;43.208;27.904;2023-05-29T05:31:00;18.93;;;16.50;;
11522;SDS011;70090;43.208;27.904;2023-05-29T05:33:27;20.53;;;15.97;;
11522;SDS011;70090;43.208;27.904;2023-05-29T05:35:54;23.03;;;16.17;;
11522;SDS011;70090;43.208;27.904;2023-05-29T05:38:21;23.20;;;17.27;;
11522;SDS011;70090;43.208;27.904;2023-05-29T05:40:48;21.60;;;16.97;;
11522;SDS011;70090;43.208;27.904;2023-05-29T05:43:14;19.90;;;16.00;;
11522;SDS011;70090;43.208;27.904;2023-05-29T05:45:43;20.97;;;16.07;;
11522;SDS011;70090;43.208;27.904;2023-05-29T05:48:10;22.23;;;16.47;;
11522;SDS011;70090;43.208;27.904;2023-05-29T05:50:37;21.90;;;18.37;;
11522;SDS011;70090;43.208;27.904;2023-05-29T05:53:04;23.67;;;16.63;;
11522;SDS011;70090;43.208;27.904;2023-05-29T05:55:31;18.70;;;16.23;;
11522;SDS011;70090;43.208;27.904;2023-05-29T05:57:57;37.50;;;30.77;;
11522;SDS011;70090;43.208;27.904;2023-05-29T06:00:24;30.83;;;23.70;;
11522;SDS011;70090;43.208;27.904;2023-05-29T06:02:54;26.37;;;22.40;;
11522;SDS011;70090;43.208;27.904;2023-05-29T06:05:21;25.93;;;23.07;;
11522;SDS011;70090;43.208;27.904;2023-05-29T06:07:48;26.23;;;22.10;;
11522;SDS011;70090;43.208;27.904;2023-05-29T06:10:15;32.33;;;25.27;;
11522;SDS011;70090;43.208;27.904;2023-05-29T06:12:42;34.77;;;26.80;;
11522;SDS011;70090;43.208;27.904;2023-05-29T06:15:09;25.90;;;22.77;;
11522;SDS011;70090;43.208;27.904;2023-05-29T06:17:36;26.97;;;22.30;;
11522;SDS011;70090;43.208;27.904;2023-05-29T06:20:05;29.73;;;24.93;;
11522;SDS011;70090;43.208;27.904;2023-05-29T06:22:35;39.50;;;31.97;;
11522;SDS011;70090;43.208;27.904;2023-05-29T06:25:02;27.37;;;23.70;;
11522;SDS011;70090;43.208;27.904;2023-05-29T06:27:30;30.00;;;22.87;;
11522;SDS011;70090;43.208;27.904;2023-05-29T06:29:57;27.57;;;19.80;;
11522;SDS011;70090;43.208;27.904;2023-05-29T06:32:24;20.37;;;18.20;;
11522;SDS011;70090;43.208;27.904;2023-05-29T06:34:50;21.20;;;17.10;;
11522;SDS011;70090;43.208;27.904;2023-05-29T06:37:19;17.93;;;16.03;;
11522;SDS011;70090;43.208;27.904;2023-05-29T06:39:45;22.87;;;17.47;;
11522;SDS011;70090;43.208;27.904;2023-05-29T06:42:12;16.77;;;14.80;;
11522;SDS011;70090;43.208;27.904;2023-05-29T06:44:39;15.27;;;12.97;;
11522;SDS011;70090;43.208;27.904;2023-05-29T06:47:06;16.20;;;14.33;;
11522;SDS011;70090;43.208;27.904;2023-05-29T06:49:33;18.77;;;15.07;;
11522;SDS011;70090;43.208;27.904;2023-05-29T06:51:59;15.20;;;12.77;;
11522;SDS011;70090;43.208;27.904;2023-05-29T06:54:28;18.50;;;16.23;;
11522;SDS011;70090;43.208;27.904;2023-05-29T06:56:54;20.47;;;16.83;;
11522;SDS011;70090;43.208;27.904;2023-05-29T06:59:22;18.83;;;16.93;;
11522;SDS011;70090;43.208;27.904;2023-05-29T07:01:48;21.03;;;18.77;;
11522;SDS011;70090;43.208;27.904;2023-05-29T07:04:15;22.33;;;18.43;;
11522;SDS011;70090;43.208;27.904;2023-05-29T07:06:42;21.27;;;18.43;;
11522;SDS011;70090;43.208;27.904;2023-05-29T07:09:09;39.03;;;18.13;;
11522;SDS011;70090;43.208;27.904;2023-05-29T07:11:37;26.10;;;18.73;;
11522;SDS011;70090;43.208;27.904;2023-05-29T07:14:04;22.87;;;18.33;;
11522;SDS011;70090;43.208;27.904;2023-05-29T07:16:31;22.07;;;17.90;;
11522;SDS011;70090;43.208;27.904;2023-05-29T07:18:58;21.20;;;15.30;;
11522;SDS011;70090;43.208;27.904;2023-05-29T07:21:25;18.43;;;10.20;;
11522;SDS011;70090;43.208;27.904;2023-05-29T07:23:52;15.87;;;8.67;;
11522;SDS011;70090;43.208;27.904;2023-05-29T07:26:19;17.23;;;8.23;;
11522;SDS011;70090;43.208;27.904;2023-05-29T07:28:49;15.40;;;8.57;;
11522;SDS011;70090;43.208;27.904;2023-05-29T07:31:16;13.77;;;8.20;;
11522;SDS011;70090;43.208;27.904;2023-05-29T07:33:42;14.07;;;8.73;;
11522;SDS011;70090;43.208;27.904;2023-05-29T07:36:10;13.27;;;8.57;;
11522;SDS011;70090;43.208;27.904;2023-05-29T07:38:37;14.93;;;8.17;;
11522;SDS011;70090;43.208;27.904;2023-05-29T07:41:04;17.63;;;10.07;;
11522;SDS011;70090;43.208;27.904;2023-05-29T07:43:31;16.30;;;10.30;;
11522;SDS011;70090;43.208;27.904;2023-05-29T07:45:59;15.90;;;11.17;;
11522;SDS011;70090;43.208;27.904;2023-05-29T07:48:26;12.80;;;9.27;;
11522;SDS011;70090;43.208;27.904;2023-05-29T07:50:53;15.03;;;9.90;;
11522;SDS011;70090;43.208;27.904;2023-05-29T07:53:20;17.80;;;11.00;;
11522;SDS011;70090;43.208;27.904;2023-05-29T07:55:46;13.00;;;10.10;;
11522;SDS011;70090;43.208;27.904;2023-05-29T07:58:13;14.93;;;9.13;;
11522;SDS011;70090;43.208;27.904;2023-05-29T08:00:41;16.43;;;9.33;;
11522;SDS011;70090;43.208;27.904;2023-05-29T08:03:11;23.17;;;10.70;;
11522;SDS011;70090;43.208;27.904;2023-05-29T08:05:38;22.37;;;10.67;;
11522;SDS011;70090;43.208;27.904;2023-05-29T08:08:05;24.43;;;10.97;;
11522;SDS011;70090;43.208;27.904;2023-05-29T08:10:32;20.63;;;11.47;;
11522;SDS011;70090;43.208;27.904;2023-05-29T08:12:59;19.20;;;10.77;;
11522;SDS011;70090;43.208;27.904;2023-05-29T08:15:26;21.60;;;11.80;;
11522;SDS011;70090;43.208;27.904;2023-05-29T08:17:53;25.07;;;12.03;;
11522;SDS011;70090;43.208;27.904;2023-05-29T08:20:21;25.47;;;12.40;;
11522;SDS011;70090;43.208;27.904;2023-05-29T08:22:48;24.93;;;12.10;;
11522;SDS011;70090;43.208;27.904;2023-05-29T08:25:15;21.07;;;12.57;;
11522;SDS011;70090;43.208;27.904;2023-05-29T08:27:42;22.63;;;12.30;;
11522;SDS011;70090;43.208;27.904;2023-05-29T08:30:09;25.80;;;13.20;;
11522;SDS011;70090;43.208;27.904;2023-05-29T08:32:39;25.97;;;13.27;;
11522;SDS011;70090;43.208;27.904;2023-05-29T08:35:06;18.33;;;13.40;;
11522;SDS011;70090;43.208;27.904;2023-05-29T08:37:35;22.93;;;13.17;;
11522;SDS011;70090;43.208;27.904;2023-05-29T08:40:02;23.10;;;13.33;;
11522;SDS011;70090;43.208;27.904;2023-05-29T08:42:36;18.97;;;13.40;;
11522;SDS011;70090;43.208;27.904;2023-05-29T08:45:06;17.37;;;13.33;;
11522;SDS011;70090;43.208;27.904;2023-05-29T08:47:39;18.20;;;12.83;;
11522;SDS011;70090;43.208;27.904;2023-05-29T08:50:07;19.77;;;14.47;;
11522;SDS011;70090;43.208;27.904;2023-05-29T08:52:35;14.90;;;11.70;;
11522;SDS011;70090;43.208;27.904;2023-05-29T08:55:04;16.13;;;12.27;;
11522;SDS011;70090;43.208;27.904;2023-05-29T08:57:32;17.03;;;13.27;;
11522;SDS011;70090;43.208;27.904;2023-05-29T09:00:01;14.97;;;11.97;;
11522;SDS011;70090;43.208;27.904;2023-05-29T09:02:33;20.57;;;16.70;;
11522;SDS011;70090;43.208;27.904;2023-05-29T09:05:01;17.60;;;15.70;;
11522;SDS011;70090;43.208;27.904;2023-05-29T09:07:28;13.57;;;11.67;;
11522;SDS011;70090;43.208;27.904;2023-05-29T09:09:57;9.30;;;8.40;;
11522;SDS011;70090;43.208;27.904;2023-05-29T09:12:25;10.20;;;7.90;;
11522;SDS011;70090;43.208;27.904;2023-05-29T09:14:53;9.73;;;8.77;;
11522;SDS011;70090;43.208;27.904;2023-05-29T09:17:19;8.80;;;7.90;;
11522;SDS011;70090;43.208;27.904;2023-05-29T09:19:47;9.97;;;8.53;;
11522;SDS011;70090;43.208;27.904;2023-05-29T09:22:14;13.00;;;8.83;;
11522;SDS011;70090;43.208;27.904;2023-05-29T09:24:41;8.63;;;7.27;;
11522;SDS011;70090;43.208;27.904;2023-05-29T09:27:11;9.43;;;7.90;;
11522;SDS011;70090;43.208;27.904;2023-05-29T09:29:39;9.33;;;8.33;;
11522;SDS011;70090;43.208;27.904;2023-05-29T09:32:06;9.37;;;7.87;;
11522;SDS011;70090;43.208;27.904;2023-05-29T09:34:35;9.47;;;8.57;;
11522;SDS011;70090;43.208;27.904;2023-05-29T09:37:02;9.93;;;8.93;;
11522;SDS011;70090;43.208;27.904;2023-05-29T09:39:34;10.23;;;9.23;;
11522;SDS011;70090;43.208;27.904;2023-05-29T09:42:12;11.60;;;8.43;;
11522;SDS011;70090;43.208;27.904;2023-05-29T09:44:39;10.70;;;9.53;;
11522;SDS011;70090;43.208;27.904;2023-05-29T09:47:07;10.53;;;8.43;;
11522;SDS011;70090;43.208;27.904;2023-05-29T09:49:34;10.60;;;9.60;;
11522;SDS011;70090;43.208;27.904;2023-05-29T09:52:03;11.17;;;10.07;;
11522;SDS011;70090;43.208;27.904;2023-05-29T09:54:34;9.83;;;8.83;;
11522;SDS011;70090;43.208;27.904;2023-05-29T09:57:01;10.30;;;9.30;;
11522;SDS011;70090;43.208;27.904;2023-05-29T09:59:32;11.10;;;9.97;;
11522;SDS011;70090;43.208;27.904;2023-05-29T10:02:01;10.43;;;9.43;;
11522;SDS011;70090;43.208;27.904;2023-05-29T10:04:32;10.60;;;9.50;;
11522;SDS011;70090;43.208;27.904;2023-05-29T10:07:00;11.13;;;9.90;;
11522;SDS011;70090;43.208;27.904;2023-05-29T10:09:32;13.37;;;11.77;;
11522;SDS011;70090;43.208;27.904;2023-05-29T10:12:01;14.03;;;12.00;;
11522;SDS011;70090;43.208;27.904;2023-05-29T10:14:34;13.63;;;11.23;;
11522;SDS011;70090;43.208;27.904;2023-05-29T10:17:02;11.93;;;10.83;;
11522;SDS011;70090;43.208;27.904;2023-05-29T10:19:33;12.47;;;11.17;;
11522;SDS011;70090;43.208;27.904;2023-05-29T10:22:03;13.17;;;11.80;;
11522;SDS011;70090;43.208;27.904;2023-05-29T10:24:31;13.83;;;12.07;;
11522;SDS011;70090;43.208;27.904;2023-05-29T10:26:58;14.17;;;12.77;;
11522;SDS011;70090;43.208;27.904;2023-05-29T10:29:26;15.23;;;12.87;;
11522;SDS011;70090;43.208;27.904;2023-05-29T10:34:48;14.77;;;13.17;;
11522;SDS011;70090;43.208;27.904;2023-05-29T10:37:25;14.83;;;13.33;;
11522;SDS011;70090;43.208;27.904;2023-05-29T10:40:03;15.83;;;14.37;;
11522;SDS011;70090;43.208;27.904;2023-05-29T10:42:46;17.23;;;14.17;;
11522;SDS011;70090;43.208;27.904;2023-05-29T10:51:06;22.43;;;20.03;;
11522;SDS011;70090;43.208;27.904;2023-05-29T10:53:34;24.40;;;21.80;;
11522;SDS011;70090;43.208;27.904;2023-05-29T10:56:07;26.53;;;23.83;;
11522;SDS011;70090;43.208;27.904;2023-05-29T10:58:36;30.37;;;26.10;;
11522;SDS011;70090;43.208;27.904;2023-05-29T11:01:04;29.43;;;25.87;;
11522;SDS011;70090;43.208;27.904;2023-05-29T11:03:31;25.77;;;22.97;;
11522;SDS011;70090;43.208;27.904;2023-05-29T11:06:00;22.30;;;20.07;;
11522;SDS011;70090;43.208;27.904;2023-05-29T11:08:32;19.37;;;17.50;;
11522;SDS011;70090;43.208;27.904;2023-05-29T11:10:59;17.97;;;16.23;;
11522;SDS011;70090;43.208;27.904;2023-05-29T11:13:30;17.67;;;15.93;;
11522;SDS011;70090;43.208;27.904;2023-05-29T11:16:09;14.53;;;13.20;;
11522;SDS011;70090;43.208;27.904;2023-05-29T11:18:43;13.57;;;12.20;;
11522;SDS011;70090;43.208;27.904;2023-05-29T11:21:21;12.80;;;11.67;;
11522;SDS011;70090;43.208;27.904;2023-05-29T11:23:54;12.23;;;11.03;;
11522;SDS011;70090;43.208;27.904;2023-05-29T11:26:25;10.93;;;9.93;;
11522;SDS011;70090;43.208;27.904;2023-05-29T11:28:53;10.57;;;8.00;;
11522;SDS011;70090;43.208;27.904;2023-05-29T11:31:20;8.83;;;8.03;;
11522;SDS011;70090;43.208;27.904;2023-05-29T11:33:48;9.13;;;8.23;;
11522;SDS011;70090;43.208;27.904;2023-05-29T11:36:18;9.47;;;8.67;;
11522;SDS011;70090;43.208;27.904;2023-05-29T11:38:45;9.83;;;7.93;;
11522;SDS011;70090;43.208;27.904;2023-05-29T11:41:12;8.70;;;7.43;;
11522;SDS011;70090;43.208;27.904;2023-05-29T11:43:39;6.67;;;5.93;;
11522;SDS011;70090;43.208;27.904;2023-05-29T11:46:16;6.13;;;5.53;;
11522;SDS011;70090;43.208;27.904;2023-05-29T11:48:44;5.80;;;5.30;;
11522;SDS011;70090;43.208;27.904;2023-05-29T11:51:12;5.83;;;5.00;;
11522;SDS011;70090;43.208;27.904;2023-05-29T11:53:41;6.93;;;5.17;;
11522;SDS011;70090;43.208;27.904;2023-05-29T11:56:08;4.87;;;4.47;;
11522;SDS011;70090;43.208;27.904;2023-05-29T11:58:36;4.80;;;4.40;;
11522;SDS011;70090;43.208;27.904;2023-05-29T12:01:04;5.47;;;4.90;;
11522;SDS011;70090;43.208;27.904;2023-05-29T12:03:31;5.90;;;5.40;;
11522;SDS011;70090;43.208;27.904;2023-05-29T12:06:04;5.20;;;4.80;;
11522;SDS011;70090;43.208;27.904;2023-05-29T12:08:31;5.20;;;4.80;;
11522;SDS011;70090;43.208;27.904;2023-05-29T12:11:00;6.17;;;5.67;;
11522;SDS011;70090;43.208;27.904;2023-05-29T12:13:26;6.27;;;5.77;;
11522;SDS011;70090;43.208;27.904;2023-05-29T12:15:54;6.57;;;5.40;;
11522;SDS011;70090;43.208;27.904;2023-05-29T12:18:23;6.60;;;5.90;;
11522;SDS011;70090;43.208;27.904;2023-05-29T12:20:50;6.30;;;5.70;;
11522;SDS011;70090;43.208;27.904;2023-05-29T12:23:22;7.10;;;6.03;;
11522;SDS011;70090;43.208;27.904;2023-05-29T12:25:50;6.07;;;5.20;;
11522;SDS011;70090;43.208;27.904;2023-05-29T12:28:18;6.40;;;5.80;;
11522;SDS011;70090;43.208;27.904;2023-05-29T12:30:47;5.67;;;5.17;;
11522;SDS011;70090;43.208;27.904;2023-05-29T12:33:24;6.30;;;5.80;;
11522;SDS011;70090;43.208;27.904;2023-05-29T12:35:53;6.23;;;5.60;;
11522;SDS011;70090;43.208;27.904;2023-05-29T12:38:20;7.37;;;6.70;;
11522;SDS011;70090;43.208;27.904;2023-05-29T12:40:49;6.00;;;5.40;;
11522;SDS011;70090;43.208;27.904;2023-05-29T12:43:18;6.10;;;5.40;;
11522;SDS011;70090;43.208;27.904;2023-05-29T12:45:45;6.77;;;6.07;;
11522;SDS011;70090;43.208;27.904;2023-05-29T12:48:12;8.57;;;5.87;;
11522;SDS011;70090;43.208;27.904;2023-05-29T12:50:39;6.63;;;5.93;;
11522;SDS011;70090;43.208;27.904;2023-05-29T12:53:07;7.13;;;6.30;;
11522;SDS011;70090;43.208;27.904;2023-05-29T12:55:34;6.30;;;5.70;;
11522;SDS011;70090;43.208;27.904;2023-05-29T12:58:03;8.20;;;6.77;;
11522;SDS011;70090;43.208;27.904;2023-05-29T13:00:33;6.53;;;5.93;;
11522;SDS011;70090;43.208;27.904;2023-05-29T13:03:00;6.63;;;5.97;;
11522;SDS011;70090;43.208;27.904;2023-05-29T13:05:27;6.57;;;6.00;;
11522;SDS011;70090;43.208;27.904;2023-05-29T13:07:54;8.80;;;6.20;;
11522;SDS011;70090;43.208;27.904;2023-05-29T13:10:21;7.10;;;6.40;;
11522;SDS011;70090;43.208;27.904;2023-05-29T13:12:48;7.03;;;6.30;;
11522;SDS011;70090;43.208;27.904;2023-05-29T13:15:18;7.63;;;6.83;;
11522;SDS011;70090;43.208;27.904;2023-05-29T13:17:47;8.50;;;7.00;;
11522;SDS011;70090;43.208;27.904;2023-05-29T13:20:14;9.13;;;6.37;;
11522;SDS011;70090;43.208;27.904;2023-05-29T13:22:41;8.30;;;6.23;;
11522;SDS011;70090;43.208;27.904;2023-05-29T13:25:13;9.20;;;7.30;;
11522;SDS011;70090;43.208;27.904;2023-05-29T13:27:41;8.23;;;6.93;;
11522;SDS011;70090;43.208;27.904;2023-05-29T13:30:10;8.17;;;7.37;;
11522;SDS011;70090;43.208;27.904;2023-05-29T13:32:38;8.47;;;7.60;;
11522;SDS011;70090;43.208;27.904;2023-05-29T13:35:06;8.17;;;6.43;;
11522;SDS011;70090;43.208;27.904;2023-05-29T13:37:35;13.50;;;8.97;;
11522;SDS011;70090;43.208;27.904;2023-05-29T13:40:02;8.80;;;7.90;;
11522;SDS011;70090;43.208;27.904;2023-05-29T13:42:30;9.90;;;7.50;;
11522;SDS011;70090;43.208;27.904;2023-05-29T13:44:57;7.63;;;6.90;;
11522;SDS011;70090;43.208;27.904;2023-05-29T13:47:24;8.87;;;6.67;;
11522;SDS011;70090;43.208;27.904;2023-05-29T13:49:53;7.30;;;6.50;;
11522;SDS011;70090;43.208;27.904;2023-05-29T13:52:22;10.33;;;7.47;;
11522;SDS011;70090;43.208;27.904;2023-05-29T13:54:49;14.67;;;7.90;;
11522;SDS011;70090;43.208;27.904;2023-05-29T13:57:16;11.77;;;6.93;;
11522;SDS011;70090;43.208;27.904;2023-05-29T13:59:43;8.43;;;7.37;;
11522;SDS011;70090;43.208;27.904;2023-05-29T14:02:10;9.33;;;7.07;;
11522;SDS011;70090;43.208;27.904;2023-05-29T14:04:38;8.80;;;7.60;;
11522;SDS011;70090;43.208;27.904;2023-05-29T14:07:07;10.80;;;8.10;;
11522;SDS011;70090;43.208;27.904;2023-05-29T14:09:35;7.90;;;7.10;;
11522;SDS011;70090;43.208;27.904;2023-05-29T14:12:02;9.73;;;8.83;;
11522;SDS011;70090;43.208;27.904;2023-05-29T14:14:32;12.40;;;10.57;;
11522;SDS011;70090;43.208;27.904;2023-05-29T14:16:59;10.63;;;8.50;;
11522;SDS011;70090;43.208;27.904;2023-05-29T14:19:26;11.77;;;8.80;;
11522;SDS011;70090;43.208;27.904;2023-05-29T14:21:52;11.37;;;9.03;;
11522;SDS011;70090;43.208;27.904;2023-05-29T14:24:19;14.10;;;8.83;;
11522;SDS011;70090;43.208;27.904;2023-05-29T14:26:47;12.33;;;8.53;;
11522;SDS011;70090;43.208;27.904;2023-05-29T14:29:15;11.00;;;9.00;;